Time;durP1;ratioP1;P1;durP2;ratioP2;P2;SDS_P1;SDS_P2;PMS_P1;PMS_P2;Temp;Humidity;BMP_temperature;BMP_pressure;BME280_temperature;BME280_humidity;BME280_pressure;Samples;Min_cycle;Max_cycle;Signal;HPM_P1;HPM_P2
2022/01/08 00:02:48;;;;;;;20.73;9.80;;;6.90;62.90;;;;;;6331744;28;20020;-71
2022/01/08 00:05:49;;;;;;;23.77;9.48;;;6.90;63.00;;;;;;6331000;28;20015;-70
2022/01/08 00:08:50;;;;;;;21.52;9.13;;;6.90;63.10;;;;;;6307885;28;20023;-70
2022/01/08 00:11:52;;;;;;;19.42;8.90;;;6.90;63.20;;;;;;6291689;28;20131;-69
2022/01/08 00:14:53;;;;;;;21.52;7.53;;;6.90;63.40;;;;;;6309225;28;20070;-70
2022/01/08 00:17:54;;;;;;;17.48;8.07;;;6.90;63.30;;;;;;6325904;28;20080;-70
2022/01/08 00:20:55;;;;;;;23.10;8.77;;;6.90;63.20;;;;;;6325361;28;20028;-71
2022/01/08 00:23:56;;;;;;;15.95;7.75;;;6.90;63.30;;;;;;6291322;28;20580;-70
2022/01/08 00:26:57;;;;;;;17.27;7.22;;;6.90;63.40;;;;;;6307306;28;20047;-70
2022/01/08 00:29:59;;;;;;;17.35;5.70;;;6.90;63.40;;;;;;6316732;28;20417;-70
2022/01/08 00:32:59;;;;;;;17.23;6.78;;;6.90;63.50;;;;;;6288282;28;20062;-70
2022/01/08 00:36:00;;;;;;;12.80;6.30;;;6.90;63.70;;;;;;6305581;28;20027;-70
2022/01/08 00:39:02;;;;;;;14.73;7.13;;;6.90;63.70;;;;;;6326656;28;20368;-69
2022/01/08 00:42:04;;;;;;;15.77;6.80;;;6.90;63.90;;;;;;6321639;28;20247;-69
2022/01/08 00:45:06;;;;;;;16.55;6.65;;;6.90;64.00;;;;;;6319517;28;20027;-70
2022/01/08 00:48:07;;;;;;;16.13;6.68;;;6.90;64.20;;;;;;6329883;28;20674;-70
2022/01/08 00:51:08;;;;;;;21.98;8.30;;;6.90;64.30;;;;;;6330461;28;20420;-69
2022/01/08 00:54:09;;;;;;;15.85;7.35;;;6.90;64.40;;;;;;6320517;28;20028;-70
2022/01/08 00:57:10;;;;;;;19.13;7.35;;;6.80;64.40;;;;;;6319506;28;20020;-70
2022/01/08 01:00:13;;;;;;;17.20;7.30;;;6.80;64.60;;;;;;6299422;28;20034;-70
2022/01/08 01:03:14;;;;;;;13.30;6.22;;;6.80;64.60;;;;;;6318662;28;20071;-70
2022/01/08 01:06:15;;;;;;;18.00;7.90;;;6.80;64.90;;;;;;6319865;28;20454;-70
2022/01/08 01:09:16;;;;;;;18.10;7.88;;;6.80;64.90;;;;;;6321174;28;20035;-69
2022/01/08 01:12:17;;;;;;;15.00;7.78;;;6.80;65.80;;;;;;6305551;28;20066;-69
2022/01/08 01:15:18;;;;;;;15.02;7.28;;;6.90;65.10;;;;;;6303996;28;20043;-68
2022/01/08 01:18:19;;;;;;;13.10;6.05;;;6.90;65.00;;;;;;6304609;28;20407;-70
2022/01/08 01:21:20;;;;;;;17.58;7.40;;;6.90;64.90;;;;;;6305977;28;20032;-70
2022/01/08 01:24:24;;;;;;;17.35;7.32;;;6.90;65.00;;;;;;6302267;28;20024;-69
2022/01/08 01:47:01;;;;;;;17.42;5.72;;;6.80;65.50;;;;;;6316771;28;22790;-69
2022/01/08 01:50:05;;;;;;;13.88;6.18;;;6.80;65.50;;;;;;6332435;28;20423;-69
2022/01/08 01:53:07;;;;;;;19.58;7.30;;;6.80;65.50;;;;;;6317133;28;20035;-70
2022/01/08 01:56:08;;;;;;;11.48;5.82;;;6.80;65.60;;;;;;6300609;28;20028;-69
2022/01/08 01:59:09;;;;;;;12.30;6.28;;;6.90;65.80;;;;;;6317974;28;20027;-69
2022/01/08 02:02:10;;;;;;;12.48;5.80;;;6.90;65.80;;;;;;6331122;28;20107;-69
2022/01/08 02:05:11;;;;;;;15.75;7.35;;;6.90;65.80;;;;;;6331366;28;20046;-70
2022/01/08 02:08:13;;;;;;;16.45;6.43;;;6.90;65.90;;;;;;6337967;28;20460;-69
2022/01/08 02:11:17;;;;;;;18.25;6.32;;;6.80;65.90;;;;;;6337881;28;20034;-70
2022/01/08 02:14:19;;;;;;;11.20;5.88;;;6.80;66.10;;;;;;6330862;28;20023;-69
2022/01/08 02:17:20;;;;;;;13.82;5.30;;;6.90;66.20;;;;;;6306304;28;20114;-69
2022/01/08 02:20:21;;;;;;;10.02;5.72;;;6.70;66.10;;;;;;6331034;28;20043;-69
2022/01/08 02:23:22;;;;;;;13.63;5.55;;;6.90;66.40;;;;;;6330802;28;20475;-69
2022/01/08 02:26:23;;;;;;;17.00;5.07;;;6.90;66.40;;;;;;6331698;28;20027;-69
2022/01/08 02:29:25;;;;;;;9.30;4.75;;;6.80;66.40;;;;;;6283616;28;20055;-69
2022/01/08 02:32:30;;;;;;;12.25;4.68;;;6.80;66.60;;;;;;6261270;28;20028;-69
2022/01/08 02:35:31;;;;;;;8.52;4.22;;;6.70;66.80;;;;;;6296722;28;20066;-68
2022/01/08 02:38:33;;;;;;;8.10;3.65;;;6.70;67.10;;;;;;6299145;28;20061;-69
2022/01/08 02:41:34;;;;;;;10.85;3.85;;;6.70;67.10;;;;;;6278862;28;20111;-69
2022/01/08 02:44:35;;;;;;;7.03;3.63;;;6.80;67.20;;;;;;6296416;28;20020;-71
2022/01/08 02:47:36;;;;;;;11.20;4.70;;;6.80;67.20;;;;;;6308862;28;20028;-71
2022/01/08 02:50:37;;;;;;;6.25;3.20;;;6.80;67.10;;;;;;6311528;28;20031;-70
2022/01/08 02:53:39;;;;;;;6.90;3.72;;;6.80;67.10;;;;;;6311429;28;20047;-69
2022/01/08 02:56:42;;;;;;;9.40;4.00;;;6.80;67.10;;;;;;6295642;28;20345;-70
2022/01/08 02:59:43;;;;;;;8.65;4.40;;;6.80;67.20;;;;;;6277142;28;20032;-70
2022/01/08 03:02:49;;;;;;;10.27;4.25;;;6.80;67.20;;;;;;6310179;28;20020;-70
2022/01/08 03:05:52;;;;;;;17.25;4.85;;;6.80;67.30;;;;;;6293131;28;20028;-68
2022/01/08 03:08:53;;;;;;;8.60;4.55;;;6.80;67.40;;;;;;6294420;28;20257;-70
2022/01/08 03:11:54;;;;;;;11.80;4.38;;;6.80;67.40;;;;;;6281808;28;20565;-70
2022/01/08 03:14:55;;;;;;;11.82;4.95;;;6.90;67.40;;;;;;6276333;28;20476;-69
2022/01/08 03:17:56;;;;;;;10.52;4.32;;;6.90;67.30;;;;;;6266044;28;20093;-70
2022/01/08 03:21:02;;;;;;;11.40;5.43;;;6.90;67.20;;;;;;6279954;28;20040;-70
2022/01/08 03:24:06;;;;;;;9.38;3.80;;;6.90;67.20;;;;;;6260827;28;20062;-70
2022/01/08 03:27:07;;;;;;;11.52;5.07;;;6.90;67.20;;;;;;6299739;28;20040;-70
2022/01/08 03:30:10;;;;;;;7.90;4.15;;;6.90;67.20;;;;;;6322406;28;20020;-70
2022/01/08 03:33:11;;;;;;;13.15;3.95;;;6.90;67.30;;;;;;6307871;28;20346;-69
2022/01/08 03:36:14;;;;;;;7.40;3.72;;;6.90;67.30;;;;;;6305328;28;20024;-68
2022/01/08 03:39:15;;;;;;;9.63;3.50;;;6.90;67.20;;;;;;6315969;28;20122;-69
2022/01/08 03:42:17;;;;;;;6.65;3.45;;;6.90;67.20;;;;;;6320771;28;20024;-69
2022/01/08 03:45:18;;;;;;;5.82;3.15;;;6.80;67.20;;;;;;6320145;28;20039;-70
2022/01/08 03:48:43;;;;;;;8.07;3.33;;;6.80;67.50;;;;;;6321065;28;20039;-71
2022/01/08 03:51:44;;;;;;;11.27;4.95;;;6.70;67.60;;;;;;6303844;28;20035;-70
2022/01/08 03:54:45;;;;;;;13.43;5.32;;;6.60;67.70;;;;;;6316595;28;20431;-70
2022/01/08 03:57:46;;;;;;;11.20;5.55;;;6.60;67.90;;;;;;6304077;28;20024;-69
2022/01/08 04:00:48;;;;;;;16.67;6.43;;;6.60;68.10;;;;;;6288458;28;20021;-70
2022/01/08 04:03:49;;;;;;;11.45;5.55;;;6.60;68.10;;;;;;6303347;28;20039;-70
2022/01/08 04:06:50;;;;;;;13.95;6.75;;;6.60;68.20;;;;;;6321324;28;20093;-71
2022/01/08 04:09:51;;;;;;;12.30;6.35;;;6.60;68.30;;;;;;6328380;28;20020;-70
2022/01/08 04:12:58;;;;;;;13.63;6.40;;;6.60;68.50;;;;;;6302672;28;20515;-69
2022/01/08 04:16:08;;;;;;;16.63;6.57;;;6.60;68.60;;;;;;6316333;28;20035;-69
2022/01/08 04:19:09;;;;;;;14.40;7.05;;;6.60;68.60;;;;;;6302215;28;20051;-69
2022/01/08 04:22:12;;;;;;;13.93;6.25;;;6.50;68.60;;;;;;6286352;28;20844;-69
2022/01/08 04:25:15;;;;;;;11.70;5.00;;;6.50;68.70;;;;;;6321749;28;20093;-68
2022/01/08 04:28:17;;;;;;;14.60;6.53;;;6.50;68.70;;;;;;6306137;28;20035;-68
2022/01/08 04:31:18;;;;;;;12.23;5.57;;;6.50;68.60;;;;;;6319775;28;20028;-68
2022/01/08 04:34:19;;;;;;;14.73;6.03;;;6.50;68.70;;;;;;6289780;28;20034;-69
2022/01/08 04:37:20;;;;;;;12.80;5.20;;;6.50;68.70;;;;;;6320654;28;20432;-68
2022/01/08 04:40:21;;;;;;;11.75;5.05;;;6.50;68.60;;;;;;6320810;28;20028;-70
2022/01/08 04:43:23;;;;;;;14.35;5.75;;;6.50;68.60;;;;;;6304158;28;20464;-70
2022/01/08 04:46:24;;;;;;;10.73;4.85;;;6.50;68.70;;;;;;6288122;28;20375;-69
2022/01/08 04:49:25;;;;;;;11.57;6.25;;;6.60;68.90;;;;;;6306285;28;20482;-69
2022/01/08 04:52:26;;;;;;;10.35;5.85;;;6.50;68.70;;;;;;6318033;28;20019;-69
2022/01/08 04:55:27;;;;;;;15.25;6.00;;;6.60;68.80;;;;;;6319634;28;20046;-69
2022/01/08 04:58:28;;;;;;;7.78;3.78;;;6.60;68.80;;;;;;6316473;28;20024;-69
2022/01/08 05:01:29;;;;;;;13.20;5.97;;;6.60;68.80;;;;;;6328562;28;20035;-69
2022/01/08 05:04:30;;;;;;;10.57;6.20;;;6.50;68.60;;;;;;6318690;28;20469;-69
2022/01/08 05:07:32;;;;;;;17.02;6.00;;;6.50;68.80;;;;;;6313456;28;20185;-69
2022/01/08 05:10:34;;;;;;;12.50;6.15;;;6.40;68.90;;;;;;6317863;28;20028;-69
2022/01/08 05:13:35;;;;;;;14.65;5.10;;;6.40;69.20;;;;;;6304924;28;20040;-69
2022/01/08 05:16:36;;;;;;;7.53;4.07;;;6.40;69.20;;;;;;6317133;28;20028;-69
2022/01/08 05:19:42;;;;;;;12.82;5.55;;;6.40;69.10;;;;;;6323092;27;20635;-69
2022/01/08 05:22:52;;;;;;;13.05;5.07;;;6.50;69.00;;;;;;6306354;28;20026;-69
2022/01/08 05:25:53;;;;;;;12.38;5.70;;;6.40;68.90;;;;;;6306215;28;20065;-70
2022/01/08 05:28:55;;;;;;;13.73;5.15;;;6.40;68.90;;;;;;6290966;28;20044;-69
2022/01/08 05:31:57;;;;;;;11.55;4.70;;;6.30;69.10;;;;;;6306097;28;20127;-69
2022/01/08 05:34:58;;;;;;;6.68;3.63;;;6.30;69.10;;;;;;6275499;28;20154;-70
2022/01/08 05:37:59;;;;;;;4.18;2.90;;;6.30;69.20;;;;;;6555510;22;20770;-69
2022/01/08 05:41:00;;;;;;;7.20;3.20;;;6.30;69.30;;;;;;6366170;28;20110;-71
2022/01/08 05:44:01;;;;;;;6.25;2.97;;;6.40;69.20;;;;;;6365648;27;20035;-71
2022/01/08 05:47:03;;;;;;;5.78;2.75;;;6.40;69.20;;;;;;6365107;28;20443;-71
2022/01/08 05:50:06;;;;;;;4.47;2.90;;;6.40;69.10;;;;;;6347583;27;20027;-70
2022/01/08 05:53:07;;;;;;;5.78;2.75;;;6.50;69.90;;;;;;6347443;28;20483;-69
2022/01/08 05:56:08;;;;;;;6.00;2.45;;;6.50;68.90;;;;;;6366989;28;20023;-70
2022/01/08 05:59:09;;;;;;;4.53;2.13;;;6.50;68.80;;;;;;6364684;28;20098;-70
2022/01/08 06:02:10;;;;;;;3.95;2.50;;;6.60;68.80;;;;;;6339433;28;20431;-70
2022/01/08 06:05:12;;;;;;;5.07;3.03;;;6.60;68.60;;;;;;6366608;28;20035;-70
2022/01/08 06:08:13;;;;;;;5.78;2.08;;;6.70;68.60;;;;;;6334124;28;20046;-70
2022/01/08 06:11:14;;;;;;;4.07;2.35;;;6.80;68.50;;;;;;6351591;28;20485;-70
2022/01/08 06:14:14;;;;;;;3.72;2.42;;;6.80;68.40;;;;;;6352151;28;20096;-69
2022/01/08 06:17:15;;;;;;;3.05;1.88;;;6.80;68.30;;;;;;6333064;28;20633;-72
2022/01/08 06:20:16;;;;;;;2.78;2.05;;;6.90;68.20;;;;;;6351392;27;20429;-70
2022/01/08 06:23:17;;;;;;;2.67;2.00;;;6.90;68.30;;;;;;6333251;27;20031;-71
2022/01/08 06:26:18;;;;;;;3.22;1.83;;;6.90;68.50;;;;;;6338040;27;20023;-71
2022/01/08 06:29:19;;;;;;;4.55;1.90;;;6.90;68.50;;;;;;6338599;27;20455;-70
2022/01/08 06:32:21;;;;;;;2.92;1.35;;;7.00;68.60;;;;;;6337513;27;20027;-70
2022/01/08 06:35:22;;;;;;;9.75;2.95;;;7.20;68.70;;;;;;6336899;27;20027;-70
2022/01/08 06:38:23;;;;;;;9.52;4.25;;;7.10;68.60;;;;;;6327312;27;20534;-71
2022/01/08 06:41:24;;;;;;;4.22;2.88;;;7.20;68.50;;;;;;6352052;27;20050;-71
2022/01/08 06:44:25;;;;;;;5.18;2.53;;;7.20;68.30;;;;;;6370244;27;20390;-72
2022/01/08 06:47:26;;;;;;;4.22;2.33;;;7.20;68.30;;;;;;6350664;27;20016;-71
2022/01/08 06:50:28;;;;;;;6.45;2.97;;;7.20;68.30;;;;;;6350858;27;20027;-71
2022/01/08 06:53:29;;;;;;;7.15;2.45;;;7.20;68.20;;;;;;6369231;27;20016;-70
2022/01/08 06:56:30;;;;;;;3.95;2.33;;;7.30;68.10;;;;;;6347395;27;20072;-70
2022/01/08 06:59:32;;;;;;;6.05;2.42;;;7.20;67.80;;;;;;6365246;27;20031;-70
2022/01/08 07:02:33;;;;;;;3.75;2.33;;;7.20;67.80;;;;;;6368422;27;20027;-71
2022/01/08 07:05:34;;;;;;;3.88;2.53;;;7.20;67.60;;;;;;6368560;27;20405;-73
2022/01/08 07:08:35;;;;;;;5.53;2.65;;;7.20;67.60;;;;;;6337007;27;20034;-71
2022/01/08 07:11:36;;;;;;;5.05;2.55;;;7.20;67.60;;;;;;6347326;27;20015;-71
2022/01/08 07:14:37;;;;;;;8.38;2.83;;;7.20;67.80;;;;;;6356518;27;20030;-71
2022/01/08 07:17:39;;;;;;;10.18;4.50;;;7.20;68.60;;;;;;6336368;27;20051;-70
2022/01/08 07:20:40;;;;;;;4.40;2.60;;;7.30;67.80;;;;;;6337756;27;20496;-70
2022/01/08 07:23:41;;;;;;;7.68;2.95;;;7.30;67.90;;;;;;6355796;27;20051;-72
2022/01/08 07:26:42;;;;;;;4.90;2.30;;;7.30;67.70;;;;;;6332338;27;20024;-71
2022/01/08 07:29:43;;;;;;;6.38;3.22;;;7.50;67.80;;;;;;6323397;27;21127;-70
2022/01/08 07:32:50;;;;;;;4.32;2.58;;;7.30;67.80;;;;;;6340076;27;20888;-71
2022/01/08 07:35:51;;;;;;;6.50;3.80;;;7.30;67.90;;;;;;6336261;27;20019;-70
2022/01/08 07:38:52;;;;;;;11.07;4.50;;;7.30;67.90;;;;;;6306783;27;20066;-70
2022/01/08 07:41:53;;;;;;;6.65;3.63;;;7.30;68.00;;;;;;6323304;27;20569;-70
2022/01/08 07:44:56;;;;;;;9.50;4.60;;;7.30;68.20;;;;;;6323212;27;20466;-71
2022/01/08 07:47:57;;;;;;;6.78;3.58;;;7.20;68.10;;;;;;6339949;27;20035;-71
2022/01/08 07:50:58;;;;;;;10.18;4.30;;;7.30;68.00;;;;;;6309709;27;20031;-71
2022/01/08 07:53:59;;;;;;;7.03;3.50;;;7.30;68.20;;;;;;6322201;27;20062;-70
2022/01/08 07:57:00;;;;;;;7.25;3.42;;;7.30;68.20;;;;;;6326910;27;20019;-70
2022/01/08 08:00:03;;;;;;;7.75;3.53;;;7.30;68.00;;;;;;6324337;27;20034;-70
2022/01/08 08:03:12;;;;;;;6.97;2.95;;;7.20;67.90;;;;;;6326386;27;20083;-70
2022/01/08 08:06:13;;;;;;;5.82;3.25;;;7.20;68.00;;;;;;6345522;27;20054;-70
2022/01/08 08:09:15;;;;;;;6.68;3.83;;;7.20;68.00;;;;;;6332460;27;20080;-71
2022/01/08 08:12:16;;;;;;;12.32;3.33;;;7.30;68.00;;;;;;6338595;27;20073;-69
2022/01/08 08:15:17;;;;;;;7.28;3.58;;;7.30;67.90;;;;;;6353599;27;20375;-71
2022/01/08 08:18:18;;;;;;;5.97;3.13;;;7.30;67.80;;;;;;6323317;27;20118;-71
2022/01/08 08:21:20;;;;;;;4.82;2.63;;;7.30;67.70;;;;;;6342643;27;20139;-72
2022/01/08 08:24:21;;;;;;;7.28;3.10;;;7.40;67.80;;;;;;6334859;27;20615;-72
2022/01/08 08:27:22;;;;;;;9.15;3.80;;;7.40;67.70;;;;;;6352841;27;20022;-72
2022/01/08 08:30:23;;;;;;;9.85;4.50;;;7.40;67.50;;;;;;6352730;27;20018;-72
2022/01/08 08:33:24;;;;;;;5.95;3.15;;;7.40;67.30;;;;;;6335293;27;20019;-72
2022/01/08 08:36:25;;;;;;;6.90;4.07;;;7.40;67.30;;;;;;6335051;27;20643;-72
2022/01/08 08:39:26;;;;;;;7.55;3.70;;;7.50;67.20;;;;;;6331188;27;20050;-71
2022/01/08 08:42:28;;;;;;;6.07;2.92;;;7.50;67.00;;;;;;6316774;27;20042;-72
2022/01/08 08:45:29;;;;;;;8.43;3.53;;;7.50;67.10;;;;;;6332530;27;20042;-74
2022/01/08 08:48:30;;;;;;;7.60;3.38;;;7.50;67.00;;;;;;6333711;27;20031;-72
2022/01/08 08:51:31;;;;;;;11.60;4.00;;;7.50;66.90;;;;;;6348004;27;20027;-69
2022/01/08 08:54:32;;;;;;;6.97;2.92;;;7.60;66.80;;;;;;6362950;27;20552;-70
2022/01/08 08:57:33;;;;;;;6.90;3.33;;;7.60;66.80;;;;;;6363431;27;20027;-70
2022/01/08 09:00:35;;;;;;;6.05;3.33;;;7.70;66.70;;;;;;6367978;27;20561;-70
2022/01/08 09:03:36;;;;;;;6.63;3.38;;;7.70;66.60;;;;;;6350953;27;20086;-70
2022/01/08 09:06:37;;;;;;;5.00;2.97;;;7.70;66.60;;;;;;6366295;27;20011;-70
2022/01/08 09:09:38;;;;;;;6.30;3.17;;;7.80;66.40;;;;;;6354084;27;20027;-71
2022/01/08 09:12:40;;;;;;;5.60;3.35;;;7.80;66.20;;;;;;6350811;27;20038;-70
2022/01/08 09:15:42;;;;;;;4.30;2.90;;;7.90;66.30;;;;;;6323565;27;20110;-71
2022/01/08 09:18:44;;;;;;;7.35;2.25;;;8.00;66.30;;;;;;6305480;27;20054;-70
2022/01/08 09:21:45;;;;;;;4.60;3.17;;;8.00;65.90;;;;;;6338343;27;20069;-69
2022/01/08 09:24:46;;;;;;;3.80;2.63;;;8.10;65.90;;;;;;6337034;28;20031;-70
2022/01/08 09:27:48;;;;;;;5.72;3.08;;;8.10;65.80;;;;;;6338288;28;20621;-70
2022/01/08 09:30:49;;;;;;;3.45;2.55;;;8.20;65.70;;;;;;6324760;28;20106;-71
2022/01/08 09:33:50;;;;;;;5.28;2.53;;;8.20;65.20;;;;;;6304663;28;20538;-70
2022/01/08 09:36:51;;;;;;;4.60;2.40;;;8.20;65.20;;;;;;6338953;27;20047;-70
2022/01/08 09:39:53;;;;;;;5.70;2.95;;;8.20;65.10;;;;;;6317784;27;20038;-70
2022/01/08 09:42:54;;;;;;;6.18;2.63;;;8.20;65.30;;;;;;6333942;28;20057;-71
2022/01/08 09:45:55;;;;;;;7.45;3.30;;;8.30;65.10;;;;;;6343103;28;20023;-70
2022/01/08 09:48:56;;;;;;;5.78;3.30;;;8.30;65.00;;;;;;6358418;27;20064;-70
2022/01/08 09:51:58;;;;;;;5.60;2.97;;;8.30;64.80;;;;;;6364351;28;20019;-71
2022/01/08 09:55:00;;;;;;;6.45;3.25;;;8.30;64.90;;;;;;6344580;28;20029;-71
2022/01/08 09:58:02;;;;;;;7.57;3.47;;;8.30;64.80;;;;;;6347964;27;20472;-70
2022/01/08 10:01:20;;;;;;;7.95;5.07;;;8.40;64.70;;;;;;6368859;27;20047;-69
2022/01/08 10:04:26;;;;;;;10.52;4.35;;;8.40;64.60;;;;;;6365503;27;20592;-70
2022/01/08 10:07:27;;;;;;;6.97;3.50;;;8.40;64.80;;;;;;6349918;27;20513;-69
2022/01/08 10:10:28;;;;;;;9.57;4.07;;;8.40;64.70;;;;;;6369173;27;20634;-71
2022/01/08 10:13:32;;;;;;;10.30;4.93;;;8.50;64.60;;;;;;6368171;27;20046;-71
2022/01/08 10:20:01;;;;;;;7.60;3.95;;;8.50;64.80;;;;;;6366864;27;20099;-70
2022/01/08 10:23:12;;;;;;;11.05;4.53;;;8.50;64.90;;;;;;6349342;27;20506;-70
2022/01/08 10:26:17;;;;;;;8.10;4.05;;;8.50;64.90;;;;;;6367892;27;20030;-69
2022/01/08 10:29:20;;;;;;;10.10;4.53;;;8.50;64.80;;;;;;6368024;27;20091;-70
2022/01/08 10:32:27;;;;;;;17.13;7.03;;;8.60;64.70;;;;;;6361988;27;20110;-71
2022/01/08 10:35:49;;;;;;;10.48;4.78;;;8.50;64.80;;;;;;6346305;27;20403;-69
2022/01/08 10:38:53;;;;;;;20.63;7.20;;;8.80;64.60;;;;;;6346464;27;20174;-70
2022/01/08 10:41:57;;;;;;;14.10;5.65;;;8.90;64.40;;;;;;6349120;27;20019;-70
2022/01/08 10:44:58;;;;;;;9.23;5.20;;;9.00;64.20;;;;;;6349199;27;20019;-70
2022/01/08 10:48:03;;;;;;;15.05;6.38;;;9.10;64.70;;;;;;6331475;27;20379;-70
2022/01/08 10:51:19;;;;;;;11.77;5.43;;;9.10;63.80;;;;;;6349559;27;20082;-70
2022/01/08 10:54:25;;;;;;;12.55;5.22;;;9.20;63.70;;;;;;6330998;27;20110;-70
2022/01/08 10:57:36;;;;;;;17.40;7.03;;;9.30;63.70;;;;;;6367658;27;20050;-71
2022/01/08 11:00:38;;;;;;;33.63;13.07;;;9.30;63.40;;;;;;6365434;27;20050;-69
2022/01/08 11:03:40;;;;;;;29.10;12.07;;;9.40;63.10;;;;;;6350040;27;20035;-70
2022/01/08 11:06:55;;;;;;;15.20;7.38;;;9.50;62.70;;;;;;6368360;27;20034;-71
2022/01/08 11:10:04;;;;;;;23.92;10.07;;;9.50;62.60;;;;;;6367747;27;20015;-70
2022/01/08 11:13:08;;;;;;;27.98;10.80;;;9.60;62.60;;;;;;6347465;27;20031;-70
2022/01/08 11:16:09;;;;;;;27.77;12.65;;;9.80;62.50;;;;;;6333814;27;20607;-69
2022/01/08 11:19:10;;;;;;;21.45;8.55;;;10.10;62.50;;;;;;6348665;27;20027;-72
2022/01/08 11:22:14;;;;;;;27.88;10.95;;;10.70;60.90;;;;;;6348466;27;20031;-72
2022/01/08 11:25:21;;;;;;;18.98;6.82;;;11.40;59.30;;;;;;6365419;27;20023;-68
2022/01/08 11:28:31;;;;;;;13.23;5.25;;;12.00;57.70;;;;;;6347501;27;20023;-70
2022/01/08 11:31:34;;;;;;;13.13;5.82;;;12.20;56.70;;;;;;6347215;27;20083;-69
2022/01/08 11:34:38;;;;;;;14.05;6.28;;;12.20;56.20;;;;;;6347905;27;20047;-70
2022/01/08 11:37:45;;;;;;;14.07;6.60;;;12.60;55.50;;;;;;6340081;28;20105;-71
2022/01/08 11:40:49;;;;;;;16.23;7.15;;;12.80;54.90;;;;;;6338163;28;20034;-70
2022/01/08 11:43:50;;;;;;;12.10;5.80;;;12.60;55.20;;;;;;6338798;28;20023;-70
2022/01/08 11:46:52;;;;;;;14.10;7.15;;;12.50;55.20;;;;;;6337481;28;20164;-70
2022/01/08 11:49:54;;;;;;;25.25;10.52;;;12.30;55.40;;;;;;6340648;28;20028;-71
2022/01/08 11:53:16;;;;;;;30.52;12.02;;;12.10;55.30;;;;;;6338879;28;20038;-70
2022/01/08 11:56:26;;;;;;;14.07;6.50;;;12.00;55.70;;;;;;6338954;28;20114;-70
2022/01/08 11:59:30;;;;;;;24.95;10.25;;;11.90;55.70;;;;;;6353848;27;20459;-70
2022/01/08 12:02:41;;;;;;;34.90;14.98;;;11.90;55.80;;;;;;6340156;28;20499;-70
2022/01/08 12:05:42;;;;;;;59.20;21.30;;;11.90;56.30;;;;;;6340286;28;20020;-70
2022/01/08 12:09:07;;;;;;;38.08;14.60;;;11.80;56.30;;;;;;6334691;28;20046;-70
2022/01/08 12:12:08;;;;;;;45.15;16.23;;;11.70;56.40;;;;;;6337903;28;20035;-69
2022/01/08 12:15:09;;;;;;;19.52;8.75;;;11.60;56.70;;;;;;6340083;28;20058;-70
2022/01/08 12:18:12;;;;;;;22.48;9.73;;;11.50;56.70;;;;;;6340279;27;20019;-70
2022/01/08 12:21:30;;;;;;;40.28;14.65;;;11.60;56.90;;;;;;6338111;28;20023;-70
2022/01/08 12:24:32;;;;;;;34.20;11.40;;;11.50;56.70;;;;;;6326895;28;20058;-69
2022/01/08 12:27:33;;;;;;;20.75;8.95;;;11.50;56.90;;;;;;6316256;28;20028;-69
2022/01/08 12:30:37;;;;;;;17.13;8.70;;;11.40;57.00;;;;;;6313304;28;20461;-70
2022/01/08 12:33:41;;;;;;;22.73;9.60;;;11.50;57.00;;;;;;6312746;28;20028;-71
2022/01/08 12:37:06;;;;;;;22.02;9.63;;;11.40;56.70;;;;;;6318443;27;20099;-70
2022/01/08 12:40:10;;;;;;;12.63;6.90;;;11.30;56.60;;;;;;6319991;27;20027;-72
2022/01/08 12:43:23;;;;;;;24.10;9.48;;;11.20;56.80;;;;;;6306164;27;20607;-74
2022/01/08 12:46:25;;;;;;;17.52;7.07;;;11.10;57.00;;;;;;6317899;27;20681;-70
2022/01/08 12:49:26;;;;;;;15.68;7.53;;;11.00;57.00;;;;;;6334714;27;20883;-73
2022/01/08 12:52:27;;;;;;;18.27;8.35;;;10.90;56.90;;;;;;6342758;27;20022;-69
2022/01/08 12:55:28;;;;;;;23.77;8.63;;;10.70;57.10;;;;;;6352705;27;20076;-70
2022/01/08 12:58:32;;;;;;;22.75;8.18;;;10.60;57.30;;;;;;6363055;27;20031;-70
2022/01/08 13:01:34;;;;;;;18.52;8.35;;;10.40;57.40;;;;;;6362339;27;20639;-70
2022/01/08 13:04:37;;;;;;;19.90;7.82;;;10.30;57.70;;;;;;6348234;27;20019;-70
2022/01/08 13:07:52;;;;;;;17.40;6.80;;;10.20;58.00;;;;;;6364821;27;20063;-69
2022/01/08 13:11:00;;;;;;;13.95;6.25;;;10.10;58.10;;;;;;6343742;27;20030;-71
2022/01/08 13:14:03;;;;;;;18.92;6.15;;;10.00;58.30;;;;;;6336818;27;20093;-69
2022/01/08 13:17:04;;;;;;;16.05;7.10;;;10.00;58.50;;;;;;6324695;27;20043;-70
2022/01/08 13:20:07;;;;;;;10.45;4.72;;;10.10;58.60;;;;;;6339051;27;20110;-71
2022/01/08 13:23:13;;;;;;;16.88;4.25;;;10.10;58.30;;;;;;6323093;27;20481;-71
2022/01/08 13:26:16;;;;;;;12.73;5.18;;;10.10;58.10;;;;;;6337912;28;20451;-70
2022/01/08 13:29:29;;;;;;;9.77;5.13;;;10.10;57.90;;;;;;6339438;27;20023;-70
2022/01/08 13:32:30;;;;;;;13.45;6.75;;;10.10;57.70;;;;;;6341300;27;20682;-70
2022/01/08 13:35:31;;;;;;;12.50;6.03;;;10.00;57.80;;;;;;6344981;27;20102;-71
2022/01/08 13:38:35;;;;;;;16.73;8.02;;;9.90;58.00;;;;;;6341816;27;20074;-70
2022/01/08 13:41:36;;;;;;;10.95;5.75;;;10.00;58.40;;;;;;6319264;27;20083;-70
2022/01/08 13:44:39;;;;;;;15.43;7.22;;;10.00;58.30;;;;;;6336375;27;20023;-70
2022/01/08 13:47:43;;;;;;;11.52;6.10;;;10.00;58.40;;;;;;6351197;27;20015;-72
2022/01/08 13:50:47;;;;;;;11.60;5.32;;;10.10;58.50;;;;;;6334751;27;20023;-73
2022/01/08 13:54:05;;;;;;;10.95;5.05;;;10.10;58.40;;;;;;6355493;27;20522;-72
2022/01/08 13:57:15;;;;;;;8.75;4.28;;;10.10;58.30;;;;;;6337862;27;20054;-73
2022/01/08 14:00:21;;;;;;;15.48;5.50;;;10.00;58.20;;;;;;6355535;27;20027;-72
2022/01/08 14:03:23;;;;;;;13.18;5.65;;;10.00;58.30;;;;;;6355879;27;20031;-73
2022/01/08 14:06:27;;;;;;;10.73;4.13;;;10.10;58.40;;;;;;6337009;27;20084;-73
2022/01/08 14:09:27;;;;;;;14.50;5.20;;;10.20;59.00;;;;;;6337357;27;20023;-72
2022/01/08 14:12:28;;;;;;;8.50;4.65;;;10.20;58.10;;;;;;6338074;27;20407;-72
2022/01/08 14:15:30;;;;;;;11.57;5.00;;;10.30;58.00;;;;;;6338661;27;20030;-73
2022/01/08 14:18:32;;;;;;;16.20;5.85;;;10.30;57.90;;;;;;6348953;27;20015;-73
2022/01/08 14:21:33;;;;;;;21.90;8.50;;;10.40;58.00;;;;;;6348636;27;20027;-73
2022/01/08 14:24:37;;;;;;;20.55;9.68;;;10.40;57.90;;;;;;6349417;27;20015;-72
2022/01/08 14:27:38;;;;;;;13.52;6.57;;;10.40;57.70;;;;;;6364949;27;20054;-72
2022/01/08 14:30:39;;;;;;;16.10;7.65;;;10.40;57.90;;;;;;6350882;27;20114;-72
2022/01/08 14:34:05;;;;;;;15.23;7.50;;;10.30;57.70;;;;;;6347975;27;21471;-71
2022/01/08 14:37:08;;;;;;;37.30;11.43;;;10.30;57.90;;;;;;6349633;27;20058;-72
2022/01/08 14:40:28;;;;;;;23.40;7.10;;;10.30;58.10;;;;;;6351916;27;20111;-72
2022/01/08 14:43:29;;;;;;;10.20;5.20;;;10.30;58.20;;;;;;6349846;27;20367;-73
2022/01/08 14:46:30;;;;;;;15.35;5.82;;;10.30;58.00;;;;;;6348943;27;20087;-73
2022/01/08 14:49:31;;;;;;;14.98;6.45;;;10.40;57.90;;;;;;6367035;27;20026;-73
2022/01/08 14:52:34;;;;;;;22.85;7.28;;;10.30;57.70;;;;;;6366810;27;20171;-73
2022/01/08 14:55:37;;;;;;;23.55;10.05;;;10.20;57.80;;;;;;6348156;27;20360;-73
2022/01/08 14:58:39;;;;;;;13.95;6.10;;;10.20;58.00;;;;;;6365205;27;20019;-74
2022/01/08 15:01:42;;;;;;;23.10;7.65;;;10.30;58.00;;;;;;6349098;27;20048;-74
2022/01/08 15:04:44;;;;;;;13.10;5.30;;;10.20;58.10;;;;;;6366782;27;20027;-73
2022/01/08 15:07:45;;;;;;;14.98;5.05;;;10.20;58.00;;;;;;6359395;27;20038;-73
2022/01/08 15:10:46;;;;;;;10.07;5.00;;;10.20;58.00;;;;;;6335908;27;20027;-73
2022/01/08 15:13:48;;;;;;;12.73;5.63;;;10.20;58.00;;;;;;6334831;27;20028;-72
2022/01/08 15:16:49;;;;;;;15.20;6.38;;;10.20;58.00;;;;;;6353871;27;20031;-71
2022/01/08 15:19:50;;;;;;;20.42;9.20;;;10.20;58.10;;;;;;6335477;27;20034;-73
2022/01/08 15:22:51;;;;;;;25.10;9.32;;;10.20;58.20;;;;;;6335298;27;20062;-71
2022/01/08 15:25:52;;;;;;;13.63;6.07;;;10.20;58.10;;;;;;6335751;27;20023;-72
2022/01/08 15:28:53;;;;;;;18.80;6.25;;;10.20;58.10;;;;;;6354088;27;20016;-72
2022/01/08 15:31:55;;;;;;;10.23;5.20;;;10.20;58.10;;;;;;6353706;27;20184;-74
2022/01/08 15:34:56;;;;;;;16.33;7.80;;;10.30;58.10;;;;;;6335696;27;20027;-73
2022/01/08 15:37:57;;;;;;;9.50;4.13;;;10.30;58.00;;;;;;6354547;27;20671;-72
2022/01/08 15:40:58;;;;;;;17.65;5.72;;;10.30;57.80;;;;;;6349108;27;20077;-69
2022/01/08 15:43:59;;;;;;;16.65;6.60;;;10.30;57.60;;;;;;6348391;27;20012;-71
2022/01/08 15:47:00;;;;;;;8.98;4.35;;;10.30;57.80;;;;;;6347793;27;20074;-72
2022/01/08 15:50:01;;;;;;;11.55;5.80;;;10.30;57.80;;;;;;6366361;27;20035;-71
2022/01/08 15:53:02;;;;;;;17.83;8.60;;;10.30;57.70;;;;;;6349470;27;20106;-72
2022/01/08 15:56:03;;;;;;;21.65;7.20;;;10.30;57.70;;;;;;6345459;27;20019;-72
2022/01/08 15:59:05;;;;;;;21.13;8.25;;;10.30;57.70;;;;;;6347064;27;20039;-71
2022/01/08 16:02:06;;;;;;;9.00;4.18;;;10.20;57.50;;;;;;6349384;27;20603;-72
2022/01/08 16:05:07;;;;;;;13.10;5.13;;;10.20;57.50;;;;;;6347657;27;20023;-71
2022/01/08 16:08:08;;;;;;;11.55;5.03;;;10.10;57.40;;;;;;6346915;27;20126;-72
2022/01/08 16:11:09;;;;;;;9.80;4.35;;;10.00;58.20;;;;;;6365499;27;20019;-72
2022/01/08 16:14:11;;;;;;;13.02;5.07;;;10.00;57.80;;;;;;6365488;27;20034;-71
2022/01/08 16:17:12;;;;;;;16.90;6.43;;;10.00;58.00;;;;;;6346996;27;20096;-71